Dry Creek, Kentucky
Current Conditions -  °F | °C
As of 3:55 PM on Thursday 23 Oct 2014 (Local Time) from KPBX Reporting Station
Overcast Overcast  
Wind Chill: 53°   Ceiling: 2900
Heat Index: 53°   Visibility: 10mi
Dew Point: 41°   Wind: 6mph
Humidity: 66%   Direction: 10°N
Pressure: 30.14"   Gusts: NA
Location:  37.351°N, 82.7744°W
Report Text: KPBX 231955Z AUTO 01005KT 10SM OVC029 11/05 A3014 RMK AO2 T01140052
Loading
Personal Weather Stations






























Interactive Weather Map
Tropical Storm Tracking
New forecast layout! Learn more

10-Day Weather Forecast

Advertisements
Track Severe Weather on mobile